createdAt,value
2023-04-22T00:00:13.103Z,7.55
2023-04-22T00:02:41.177Z,9.52
2023-04-22T00:05:09.138Z,7.25
2023-04-22T00:07:36.251Z,7.00
2023-04-22T00:10:03.844Z,8.20
2023-04-22T00:12:30.901Z,12.77
2023-04-22T00:14:58.167Z,6.90
2023-04-22T00:17:25.262Z,7.63
2023-04-22T00:19:53.011Z,11.45
2023-04-22T00:22:20.478Z,10.60
2023-04-22T00:24:47.493Z,9.70
2023-04-22T00:27:14.492Z,11.98
2023-04-22T00:29:41.590Z,9.73
2023-04-22T00:32:08.557Z,8.07
2023-04-22T00:34:35.685Z,10.27
2023-04-22T00:37:02.795Z,7.32
2023-04-22T00:39:30.147Z,9.98
2023-04-22T00:41:57.227Z,7.35
2023-04-22T00:44:25.596Z,8.40
2023-04-22T00:46:53.082Z,10.73
2023-04-22T00:49:20.899Z,8.88
2023-04-22T00:51:47.886Z,14.07
2023-04-22T00:54:14.917Z,6.65
2023-04-22T00:56:42.222Z,7.93
2023-04-22T00:59:10.058Z,6.50
2023-04-22T01:01:37.624Z,8.02
2023-04-22T01:04:05.027Z,8.65
2023-04-22T01:06:32.626Z,11.07
2023-04-22T01:08:59.980Z,9.85
2023-04-22T01:11:27.173Z,8.35
2023-04-22T01:13:54.335Z,9.80
2023-04-22T01:16:23.284Z,8.23
2023-04-22T01:18:50.216Z,6.68
2023-04-22T01:21:19.594Z,8.80
2023-04-22T01:23:46.786Z,9.52
2023-04-22T01:26:13.779Z,7.88
2023-04-22T01:28:41.190Z,10.50
2023-04-22T01:31:08.237Z,11.82
2023-04-22T01:33:35.859Z,10.93
2023-04-22T01:36:02.762Z,11.20
2023-04-22T01:38:33.531Z,11.90
2023-04-22T01:41:02.740Z,10.85
2023-04-22T01:43:31.193Z,9.18
2023-04-22T01:45:58.422Z,8.85
2023-04-22T01:48:25.528Z,11.18
2023-04-22T01:50:52.546Z,11.90
2023-04-22T01:53:19.589Z,9.25
2023-04-22T01:55:47.578Z,12.68
2023-04-22T01:58:15.112Z,10.80
2023-04-22T02:00:42.317Z,12.60
2023-04-22T02:03:09.470Z,9.82
2023-04-22T02:05:38.069Z,11.15
2023-04-22T02:08:05.075Z,11.77
2023-04-22T02:10:32.279Z,14.25
2023-04-22T02:12:59.385Z,14.60
2023-04-22T02:15:26.467Z,14.25
2023-04-22T02:17:54.918Z,11.32
2023-04-22T02:20:21.894Z,14.15
2023-04-22T02:22:49.006Z,13.88
2023-04-22T02:25:16.875Z,10.63
2023-04-22T02:27:43.898Z,10.13
2023-04-22T02:30:12.080Z,12.40
2023-04-22T02:32:40.378Z,10.57
2023-04-22T02:35:07.765Z,9.68
2023-04-22T02:37:34.682Z,9.68
2023-04-22T02:40:01.664Z,11.23
2023-04-22T02:42:29.982Z,9.30
2023-04-22T02:44:56.984Z,7.82
2023-04-22T02:47:23.999Z,8.63
2023-04-22T02:49:51.272Z,10.32
2023-04-22T02:52:18.376Z,11.70
2023-04-22T02:54:45.641Z,9.05
2023-04-22T02:57:12.785Z,9.10
2023-04-22T02:59:40.096Z,9.15
2023-04-22T03:02:07.861Z,8.43
2023-04-22T03:04:49.968Z,7.95
2023-04-22T03:07:16.934Z,8.05
2023-04-22T03:09:43.990Z,8.48
2023-04-22T03:12:10.908Z,8.68
2023-04-22T03:14:38.158Z,7.78
2023-04-22T03:17:05.562Z,8.05
2023-04-22T03:19:32.719Z,10.57
2023-04-22T03:21:59.755Z,8.00
2023-04-22T03:24:26.872Z,8.18
2023-04-22T03:27:02.460Z,9.65
2023-04-22T03:29:29.774Z,6.88
2023-04-22T03:31:56.860Z,10.57
2023-04-22T03:34:23.760Z,10.70
2023-04-22T03:36:50.718Z,12.32
2023-04-22T03:39:19.153Z,9.52
2023-04-22T03:41:46.692Z,8.25
2023-04-22T03:44:13.696Z,7.18
2023-04-22T03:46:41.020Z,9.80
2023-04-22T03:49:18.363Z,12.13
2023-04-22T03:51:45.673Z,9.48
2023-04-22T03:54:17.444Z,12.75
2023-04-22T03:56:51.103Z,13.15
2023-04-22T03:59:19.544Z,13.07
2023-04-22T04:01:47.309Z,15.15
2023-04-22T04:04:16.332Z,12.10
2023-04-22T04:06:54.314Z,15.05
2023-04-22T04:09:21.515Z,9.35
2023-04-22T04:11:48.521Z,9.43
2023-04-22T04:14:15.893Z,9.40
2023-04-22T04:16:46.478Z,10.30
2023-04-22T04:19:34.163Z,7.75
2023-04-22T04:22:02.830Z,8.70
2023-04-22T04:24:36.779Z,13.45
2023-04-22T04:27:12.023Z,12.07
2023-04-22T04:29:45.628Z,8.90
2023-04-22T04:32:18.384Z,14.90
2023-04-22T04:34:47.321Z,9.35
2023-04-22T04:37:16.968Z,7.78
2023-04-22T04:40:00.641Z,6.90
2023-04-22T04:42:39.741Z,7.65
2023-04-22T04:45:12.405Z,9.02
2023-04-22T04:47:40.218Z,8.10
2023-04-22T04:50:17.095Z,7.70
2023-04-22T04:52:44.840Z,11.80
2023-04-22T04:55:12.017Z,9.65
2023-04-22T04:57:39.033Z,6.82
2023-04-22T05:00:08.038Z,8.73
2023-04-22T05:02:35.635Z,8.38
2023-04-22T05:05:03.350Z,6.90
2023-04-22T05:07:30.773Z,6.93
2023-04-22T05:09:58.300Z,7.47
2023-04-22T05:12:25.441Z,8.95
2023-04-22T05:14:53.536Z,9.25
2023-04-22T05:17:21.182Z,6.00
2023-04-22T05:19:49.203Z,12.82
2023-04-22T05:22:16.323Z,8.57
2023-04-22T05:24:43.618Z,9.77
2023-04-22T05:27:11.206Z,5.68
2023-04-22T05:29:39.224Z,7.15
2023-04-22T05:32:09.023Z,8.55
2023-04-22T05:34:36.284Z,5.38
2023-04-22T05:37:04.005Z,6.25
2023-04-22T05:39:32.447Z,4.63
2023-04-22T05:42:02.142Z,5.03
2023-04-22T05:44:29.928Z,6.00
2023-04-22T05:46:57.381Z,6.05
2023-04-22T05:49:26.980Z,7.72
2023-04-22T05:52:18.421Z,5.72
2023-04-22T05:55:01.832Z,12.00
2023-04-22T05:57:30.091Z,8.30
2023-04-22T06:00:00.381Z,6.95
2023-04-22T06:02:27.739Z,6.03
2023-04-22T06:04:54.938Z,7.00
2023-04-22T06:07:22.375Z,4.97
2023-04-22T06:09:49.281Z,6.60
2023-04-22T06:12:16.281Z,6.07
2023-04-22T06:14:43.148Z,4.03
2023-04-22T06:17:10.057Z,4.07
2023-04-22T06:19:37.430Z,7.68
2023-04-22T06:22:04.815Z,4.47
2023-04-22T06:24:31.745Z,3.22
2023-04-22T06:26:58.857Z,3.50
2023-04-22T06:29:29.311Z,5.20
2023-04-22T06:31:56.649Z,6.53
2023-04-22T06:34:24.664Z,4.53
2023-04-22T06:36:53.958Z,5.40
2023-04-22T06:39:21.711Z,6.05
2023-04-22T06:42:14.903Z,3.43
2023-04-22T06:44:54.898Z,13.52
2023-04-22T06:47:48.203Z,9.20
2023-04-22T06:50:20.509Z,7.43
2023-04-22T06:52:54.699Z,5.95
2023-04-22T06:55:31.106Z,6.05
2023-04-22T06:57:58.215Z,6.25
2023-04-22T07:00:26.523Z,5.85
2023-04-22T07:02:53.541Z,8.65
2023-04-22T07:05:20.883Z,4.53
2023-04-22T07:07:48.504Z,4.88
2023-04-22T07:10:19.836Z,6.00
2023-04-22T07:13:06.761Z,5.70
2023-04-22T07:15:34.075Z,8.45
2023-04-22T07:18:01.059Z,5.55
2023-04-22T07:20:28.285Z,5.60
2023-04-22T07:22:55.373Z,8.85
2023-04-22T07:25:22.532Z,7.13
2023-04-22T07:27:49.539Z,5.70
2023-04-22T07:30:16.543Z,7.38
2023-04-22T07:32:43.626Z,4.55
2023-04-22T07:35:10.735Z,6.63
2023-04-22T07:37:38.320Z,6.03
2023-04-22T07:40:06.112Z,10.40
2023-04-22T07:42:33.066Z,6.07
2023-04-22T07:45:00.234Z,6.32
2023-04-22T07:47:27.429Z,6.18
2023-04-22T07:49:54.395Z,8.75
2023-04-22T07:52:21.607Z,6.32
2023-04-22T07:54:48.534Z,5.40
2023-04-22T07:57:15.565Z,6.32
2023-04-22T07:59:42.659Z,5.43
2023-04-22T08:02:09.869Z,5.13
2023-04-22T08:04:37.249Z,19.02
2023-04-22T08:07:17.143Z,8.10
2023-04-22T08:09:52.037Z,6.97
2023-04-22T08:12:19.342Z,9.95
2023-04-22T08:14:46.517Z,8.23
2023-04-22T08:17:13.540Z,4.13
2023-04-22T08:19:40.700Z,3.40
2023-04-22T08:22:07.893Z,5.68
2023-04-22T08:24:34.788Z,5.85
2023-04-22T08:27:02.634Z,6.47
2023-04-22T08:29:29.962Z,6.60
2023-04-22T08:31:56.891Z,6.53
2023-04-22T08:34:27.731Z,5.47
2023-04-22T08:36:54.739Z,5.05
2023-04-22T08:39:21.846Z,6.57
2023-04-22T08:41:50.437Z,6.07
2023-04-22T08:44:17.775Z,4.50
2023-04-22T08:46:49.178Z,2.10
2023-04-22T08:49:16.638Z,6.72
2023-04-22T08:51:45.115Z,6.30
2023-04-22T08:54:12.416Z,4.55
2023-04-22T08:56:44.993Z,3.70
2023-04-22T08:59:13.511Z,7.77
2023-04-22T09:01:42.010Z,5.07
2023-04-22T09:04:15.450Z,4.47
2023-04-22T09:09:09.616Z,8.77
2023-04-22T09:11:37.674Z,5.10
2023-04-22T09:14:05.002Z,5.57
2023-04-22T09:16:32.601Z,6.70
2023-04-22T09:19:00.160Z,7.78
2023-04-22T09:21:28.230Z,4.35
2023-04-22T09:23:56.505Z,6.13
2023-04-22T09:26:25.249Z,4.72
2023-04-22T09:28:58.947Z,5.72
2023-04-22T09:31:28.792Z,4.10
2023-04-22T09:33:58.802Z,5.57
2023-04-22T09:36:30.298Z,5.80
2023-04-22T09:39:15.810Z,5.75
2023-04-22T09:41:43.059Z,7.80
2023-04-22T09:44:18.073Z,8.20
2023-04-22T09:46:45.464Z,6.47
2023-04-22T09:49:12.494Z,5.40
2023-04-22T09:51:42.676Z,3.45
2023-04-22T09:54:11.773Z,5.20
2023-04-22T09:56:48.822Z,5.78
2023-04-22T09:59:28.273Z,4.72
2023-04-22T10:02:07.334Z,7.30
2023-04-22T10:04:34.861Z,4.18
2023-04-22T10:07:03.005Z,4.55
2023-04-22T10:09:29.968Z,5.32
2023-04-22T10:12:00.414Z,5.88
2023-04-22T10:14:27.924Z,6.72
2023-04-22T10:16:59.894Z,6.47
2023-04-22T10:19:28.331Z,6.65
2023-04-22T10:22:01.308Z,4.53
2023-04-22T10:24:34.390Z,8.18
2023-04-22T10:27:08.656Z,7.65
2023-04-22T10:29:41.086Z,8.18
2023-04-22T10:32:11.934Z,5.38
2023-04-22T10:34:42.066Z,7.38
2023-04-22T10:37:13.754Z,4.70
2023-04-22T10:39:43.598Z,7.45
2023-04-22T10:42:15.448Z,7.60
2023-04-22T10:44:46.530Z,6.75
2023-04-22T10:47:27.596Z,5.10
2023-04-22T10:50:19.145Z,9.93
2023-04-22T10:52:57.850Z,5.68
2023-04-22T10:55:26.318Z,5.05
2023-04-22T10:57:53.899Z,5.78
2023-04-22T11:00:52.274Z,6.47
2023-04-22T11:03:30.443Z,4.25
2023-04-22T11:06:15.080Z,5.78
2023-04-22T11:08:49.606Z,4.78
2023-04-22T11:11:19.835Z,8.57
2023-04-22T11:13:50.855Z,6.78
2023-04-22T11:16:22.357Z,4.50
2023-04-22T11:18:50.025Z,6.10
2023-04-22T11:21:17.220Z,6.38
2023-04-22T11:23:53.133Z,4.85
2023-04-22T11:26:34.152Z,4.13
2023-04-22T11:29:01.270Z,6.18
2023-04-22T11:31:28.339Z,6.32
2023-04-22T11:33:59.533Z,9.02
2023-04-22T11:36:26.616Z,4.40
2023-04-22T11:38:56.932Z,4.88
2023-04-22T11:41:24.013Z,5.95
2023-04-22T11:43:51.220Z,3.90
2023-04-22T11:46:29.365Z,6.13
2023-04-22T11:49:14.771Z,5.95
2023-04-22T11:51:57.680Z,5.57
2023-04-22T11:54:38.094Z,7.10
2023-04-22T11:57:08.523Z,4.32
2023-04-22T11:59:35.964Z,4.85
2023-04-22T12:02:07.263Z,5.93
2023-04-22T12:04:41.568Z,7.90
2023-04-22T12:07:08.500Z,6.07
2023-04-22T12:09:35.666Z,7.53
2023-04-22T12:12:05.483Z,7.70
2023-04-22T12:14:36.000Z,5.72
2023-04-22T12:17:09.014Z,6.15
2023-04-22T12:19:36.265Z,6.80
2023-04-22T12:22:03.390Z,4.20
2023-04-22T12:24:30.944Z,4.90
2023-04-22T12:26:58.778Z,5.47
2023-04-22T12:29:33.998Z,8.68
2023-04-22T12:32:01.351Z,5.00
2023-04-22T12:34:28.441Z,7.82
2023-04-22T12:36:56.455Z,5.38
2023-04-22T12:39:23.657Z,7.05
2023-04-22T12:41:51.187Z,6.70
2023-04-22T12:44:18.219Z,4.75
2023-04-22T12:46:46.748Z,5.43
2023-04-22T12:49:14.628Z,6.78
2023-04-22T12:51:41.604Z,7.47
2023-04-22T12:54:08.543Z,6.00
2023-04-22T12:56:36.307Z,8.70
2023-04-22T12:59:03.600Z,7.63
2023-04-22T13:01:30.804Z,6.03
2023-04-22T13:03:58.114Z,7.18
2023-04-22T13:06:25.637Z,4.93
2023-04-22T13:08:52.699Z,6.90
2023-04-22T13:11:19.611Z,9.23
2023-04-22T13:13:46.812Z,4.45
2023-04-22T13:16:13.684Z,4.18
2023-04-22T13:18:40.789Z,4.80
2023-04-22T13:21:07.900Z,6.47
2023-04-22T13:23:35.467Z,6.38
2023-04-22T13:26:02.759Z,7.88
2023-04-22T13:28:29.786Z,9.18
2023-04-22T13:30:56.875Z,9.05
2023-04-22T13:33:23.848Z,7.07
2023-04-22T13:35:51.119Z,6.35
2023-04-22T13:38:19.999Z,9.38
2023-04-22T13:40:46.989Z,6.05
2023-04-22T13:43:14.103Z,8.38
2023-04-22T13:45:42.548Z,6.20
2023-04-22T13:48:09.554Z,5.78
2023-04-22T13:50:36.628Z,7.93
2023-04-22T13:53:04.949Z,6.70
2023-04-22T13:55:33.352Z,11.95
2023-04-22T13:58:01.272Z,6.50
2023-04-22T14:00:28.494Z,7.22
2023-04-22T14:02:56.624Z,7.10
2023-04-22T14:05:23.871Z,7.13
2023-04-22T14:07:50.950Z,6.82
2023-04-22T14:10:20.530Z,6.65
2023-04-22T14:12:48.454Z,6.50
2023-04-22T14:15:15.537Z,7.65
2023-04-22T14:17:42.595Z,6.43
2023-04-22T14:20:11.273Z,7.85
2023-04-22T14:22:38.347Z,6.97
2023-04-22T14:25:06.178Z,7.68
2023-04-22T14:27:33.427Z,8.10
2023-04-22T14:30:04.362Z,8.75
2023-04-22T14:32:31.663Z,6.88
2023-04-22T14:34:58.550Z,6.50
2023-04-22T14:37:25.892Z,6.93
2023-04-22T14:39:52.892Z,6.47
2023-04-22T14:42:20.547Z,6.55
2023-04-22T14:44:47.572Z,8.52
2023-04-22T14:47:14.438Z,7.30
2023-04-22T14:49:41.583Z,6.40
2023-04-22T14:52:09.546Z,5.78
2023-04-22T14:54:36.599Z,5.93
2023-04-22T14:57:04.253Z,7.22
2023-04-22T14:59:31.621Z,7.57
2023-04-22T15:01:58.625Z,4.82
2023-04-22T15:04:26.689Z,4.85
2023-04-22T15:06:57.595Z,5.38
2023-04-22T15:09:24.844Z,5.70
2023-04-22T15:11:52.112Z,4.55
2023-04-22T15:14:19.717Z,5.65
2023-04-22T15:16:49.761Z,7.10
2023-04-22T15:19:16.820Z,7.55
2023-04-22T15:21:43.862Z,7.72
2023-04-22T15:24:11.297Z,5.72
2023-04-22T15:26:39.909Z,5.88
2023-04-22T15:29:07.603Z,7.47
2023-04-22T15:31:34.638Z,6.65
2023-04-22T15:34:01.633Z,7.32
2023-04-22T15:36:29.781Z,8.40
2023-04-22T15:38:56.932Z,7.97
2023-04-22T15:41:24.531Z,6.78
2023-04-22T15:43:52.658Z,7.45
2023-04-22T15:46:20.176Z,6.10
2023-04-22T15:48:48.659Z,9.10
2023-04-22T15:51:17.253Z,7.78
2023-04-22T15:53:47.523Z,4.72
2023-04-22T15:56:15.744Z,6.85
2023-04-22T15:58:43.019Z,6.65
2023-04-22T16:01:18.860Z,9.00
2023-04-22T16:03:48.366Z,8.05
2023-04-22T16:06:15.765Z,7.05
2023-04-22T16:08:42.807Z,6.53
2023-04-22T16:11:10.048Z,9.40
2023-04-22T16:13:39.076Z,6.50
2023-04-22T16:16:06.463Z,6.40
2023-04-22T16:18:33.885Z,7.93
2023-04-22T16:21:01.483Z,5.85
2023-04-22T16:23:28.447Z,7.53
2023-04-22T16:25:55.487Z,6.55
2023-04-22T16:28:22.831Z,6.15
2023-04-22T16:30:50.028Z,5.28
2023-04-22T16:33:17.055Z,5.97
2023-04-22T16:35:43.974Z,7.50
2023-04-22T16:38:10.917Z,7.82
2023-04-22T16:40:39.847Z,8.88
2023-04-22T16:43:07.408Z,7.85
2023-04-22T16:45:34.519Z,7.13
2023-04-22T16:48:01.589Z,5.53
2023-04-22T16:50:28.933Z,7.10
2023-04-22T16:52:56.054Z,8.52
2023-04-22T16:55:23.212Z,7.85
2023-04-22T16:57:50.954Z,10.80
2023-04-22T17:00:18.776Z,9.77
2023-04-22T17:02:46.039Z,7.82
2023-04-22T17:05:13.121Z,8.73
2023-04-22T17:07:40.163Z,5.97
2023-04-22T17:10:08.039Z,7.75
2023-04-22T17:12:35.146Z,6.03
2023-04-22T17:15:02.278Z,7.25
2023-04-22T17:17:31.396Z,8.57
2023-04-22T17:19:58.341Z,8.32
2023-04-22T17:22:25.688Z,7.22
2023-04-22T17:24:52.692Z,8.07
2023-04-22T17:27:19.540Z,11.18
2023-04-22T17:29:46.728Z,8.18
2023-04-22T17:32:13.937Z,7.15
2023-04-22T17:34:41.250Z,8.88
2023-04-22T17:37:08.336Z,10.00
2023-04-22T17:39:35.461Z,7.10
2023-04-22T17:42:02.704Z,11.45
2023-04-22T17:44:29.839Z,7.32
2023-04-22T17:46:56.859Z,8.32
2023-04-22T17:49:24.123Z,9.05
2023-04-22T17:51:51.158Z,7.93
2023-04-22T17:54:18.183Z,8.93
2023-04-22T17:56:45.243Z,8.88
2023-04-22T17:59:12.529Z,8.02
2023-04-22T18:01:39.629Z,7.95
2023-04-22T18:04:06.862Z,12.32
2023-04-22T18:06:34.063Z,11.35
2023-04-22T18:09:01.007Z,10.48
2023-04-22T18:11:28.042Z,13.07
2023-04-22T18:13:55.365Z,8.80
2023-04-22T18:16:22.350Z,11.43
2023-04-22T18:18:49.279Z,12.13
2023-04-22T18:21:16.256Z,11.23
2023-04-22T18:23:43.246Z,7.22
2023-04-22T18:26:11.405Z,12.35
2023-04-22T18:28:41.090Z,8.98
2023-04-22T18:31:08.382Z,18.55
2023-04-22T18:33:36.987Z,12.50
2023-04-22T18:36:04.125Z,10.30
2023-04-22T18:38:31.094Z,9.00
2023-04-22T18:40:58.794Z,14.82
2023-04-22T18:43:25.732Z,9.02
2023-04-22T18:45:54.584Z,9.32
2023-04-22T18:48:22.465Z,9.48
2023-04-22T18:50:50.517Z,12.70
2023-04-22T18:53:17.495Z,11.95
2023-04-22T18:55:44.685Z,13.73
2023-04-22T18:58:11.782Z,12.65
2023-04-22T19:00:38.719Z,15.57
2023-04-22T19:03:05.923Z,9.70
2023-04-22T19:05:33.186Z,11.93
2023-04-22T19:08:00.213Z,10.70
2023-04-22T19:10:27.285Z,9.90
2023-04-22T19:12:54.400Z,12.13
2023-04-22T19:15:21.693Z,10.43
2023-04-22T19:17:48.718Z,12.45
2023-04-22T19:20:15.868Z,12.55
2023-04-22T19:22:44.284Z,11.48
2023-04-22T19:25:11.274Z,15.00
2023-04-22T19:27:38.418Z,11.27
2023-04-22T19:30:06.916Z,12.82
2023-04-22T19:32:34.258Z,11.75
2023-04-22T19:35:03.874Z,12.30
2023-04-22T19:37:31.205Z,11.15
2023-04-22T19:39:58.438Z,9.07
2023-04-22T19:42:25.637Z,9.90
2023-04-22T19:44:52.566Z,10.85
2023-04-22T19:47:19.690Z,11.15
2023-04-22T19:49:46.991Z,10.82
2023-04-22T19:52:15.768Z,14.15
2023-04-22T19:54:45.929Z,15.18
2023-04-22T19:57:15.633Z,10.77
2023-04-22T19:59:43.638Z,11.93
2023-04-22T20:02:11.563Z,10.55
2023-04-22T20:04:38.999Z,12.45
2023-04-22T20:07:07.012Z,11.75
2023-04-22T20:09:35.991Z,9.95
2023-04-22T20:12:04.995Z,10.63
2023-04-22T20:14:32.969Z,9.23
2023-04-22T20:17:00.232Z,9.63
2023-04-22T20:19:28.467Z,11.82
2023-04-22T20:21:57.407Z,11.00
2023-04-22T20:24:26.473Z,9.32
2023-04-22T20:26:53.598Z,9.13
2023-04-22T20:29:22.261Z,10.07
2023-04-22T20:31:49.927Z,12.18
2023-04-22T20:34:17.460Z,10.20
2023-04-22T20:36:45.107Z,15.68
2023-04-22T20:39:14.247Z,13.73
2023-04-22T20:41:41.929Z,9.48
2023-04-22T20:44:09.416Z,9.52
2023-04-22T20:46:37.587Z,10.65
2023-04-22T20:49:04.825Z,13.30
2023-04-22T20:51:32.099Z,15.32
2023-04-22T20:53:59.187Z,14.65
2023-04-22T20:56:27.514Z,11.95
2023-04-22T20:58:54.609Z,13.93
2023-04-22T21:01:21.758Z,11.50
2023-04-22T21:03:52.199Z,12.57
2023-04-22T21:06:20.787Z,12.73
2023-04-22T21:08:49.638Z,13.82
2023-04-22T21:11:17.637Z,11.55
2023-04-22T21:13:45.298Z,9.88
2023-04-22T21:16:15.054Z,12.40
2023-04-22T21:18:44.769Z,13.07
2023-04-22T21:21:13.747Z,14.55
2023-04-22T21:23:42.313Z,15.10
2023-04-22T21:26:10.676Z,13.10
2023-04-22T21:28:39.195Z,11.02
2023-04-22T21:31:06.960Z,8.55
2023-04-22T21:33:34.112Z,12.10
2023-04-22T21:36:01.102Z,11.20
2023-04-22T21:38:29.057Z,11.27
2023-04-22T21:40:56.113Z,11.25
2023-04-22T21:43:23.577Z,9.45
2023-04-22T21:45:50.783Z,11.60
2023-04-22T21:48:17.767Z,14.07
2023-04-22T21:50:44.736Z,14.02
2023-04-22T21:53:12.220Z,15.73
2023-04-22T21:55:39.641Z,13.32
2023-04-22T21:58:06.782Z,15.63
2023-04-22T22:00:33.687Z,12.82
2023-04-22T22:03:00.876Z,13.52
2023-04-22T22:05:28.047Z,17.52
2023-04-22T22:07:55.514Z,14.38
2023-04-22T22:10:22.827Z,14.32
2023-04-22T22:12:50.597Z,13.95
2023-04-22T22:15:17.973Z,15.70
2023-04-22T22:17:45.823Z,12.20
2023-04-22T22:20:18.159Z,14.13
2023-04-22T22:22:45.283Z,15.43
2023-04-22T22:25:15.689Z,16.73
2023-04-22T22:27:47.196Z,13.93
2023-04-22T22:30:15.753Z,15.23
2023-04-22T22:32:42.716Z,12.85
2023-04-22T22:35:10.524Z,18.17
2023-04-22T22:37:37.565Z,14.90
2023-04-22T22:40:05.735Z,15.73
2023-04-22T22:42:32.855Z,14.57
2023-04-22T22:44:59.859Z,19.48
2023-04-22T22:47:26.941Z,14.02
2023-04-22T22:49:53.932Z,17.63
2023-04-22T22:52:21.054Z,15.60
2023-04-22T22:54:49.091Z,15.85
2023-04-22T22:57:16.437Z,12.20
2023-04-22T22:59:43.567Z,13.63
2023-04-22T23:02:10.922Z,13.00
2023-04-22T23:04:39.512Z,12.77
2023-04-22T23:07:06.833Z,13.00
2023-04-22T23:09:33.829Z,16.13
2023-04-22T23:12:00.997Z,13.25
2023-04-22T23:14:28.278Z,14.23
2023-04-22T23:16:55.579Z,14.07
2023-04-22T23:19:22.957Z,13.00
2023-04-22T23:21:50.460Z,11.85
2023-04-22T23:24:17.820Z,17.73
2023-04-22T23:26:45.098Z,14.95
2023-04-22T23:29:12.546Z,12.63
2023-04-22T23:31:41.930Z,13.50
2023-04-22T23:34:09.518Z,17.83
2023-04-22T23:36:37.483Z,12.02
2023-04-22T23:39:06.747Z,14.15
2023-04-22T23:41:34.060Z,17.70
2023-04-22T23:44:00.962Z,17.33
2023-04-22T23:46:28.221Z,16.13
2023-04-22T23:48:55.323Z,15.57
2023-04-22T23:51:22.584Z,14.25
2023-04-22T23:53:49.556Z,17.27
2023-04-22T23:56:21.221Z,13.68
2023-04-22T23:58:51.628Z,17.50
